sensor_id;sensor_type;location;lat;lon;timestamp;pressure;altitude;pressure_sealevel;temperature;humidity
69187;BME280;56301;56.864;60.554;2023-11-21T00:01:48;99324.94;;;26.30;29.12
69187;BME280;56301;56.864;60.554;2023-11-21T00:04:11;99313.41;;;26.28;29.58
69187;BME280;56301;56.864;60.554;2023-11-21T00:06:33;99309.84;;;26.27;29.53
69187;BME280;56301;56.864;60.554;2023-11-21T00:08:56;99308.81;;;26.28;29.30
69187;BME280;56301;56.864;60.554;2023-11-21T00:11:18;99306.09;;;26.28;29.17
69187;BME280;56301;56.864;60.554;2023-11-21T00:13:41;99288.97;;;26.28;28.72
69187;BME280;56301;56.864;60.554;2023-11-21T00:16:03;99291.69;;;26.28;29.16
69187;BME280;56301;56.864;60.554;2023-11-21T00:18:26;99280.00;;;26.27;29.13
69187;BME280;56301;56.864;60.554;2023-11-21T00:20:48;99277.97;;;26.29;29.39
69187;BME280;56301;56.864;60.554;2023-11-21T00:23:11;99278.13;;;26.28;29.13
69187;BME280;56301;56.864;60.554;2023-11-21T00:25:33;99278.81;;;26.30;29.36
69187;BME280;56301;56.864;60.554;2023-11-21T00:27:55;99274.38;;;26.29;28.90
69187;BME280;56301;56.864;60.554;2023-11-21T00:30:18;99275.41;;;26.28;29.12
69187;BME280;56301;56.864;60.554;2023-11-21T00:32:40;99268.97;;;26.29;28.68
69187;BME280;56301;56.864;60.554;2023-11-21T00:35:03;99261.84;;;26.28;30.56
69187;BME280;56301;56.864;60.554;2023-11-21T00:37:26;99257.28;;;26.28;30.19
69187;BME280;56301;56.864;60.554;2023-11-21T00:39:48;99252.69;;;26.29;29.55
69187;BME280;56301;56.864;60.554;2023-11-21T00:42:11;99261.84;;;26.28;30.07
69187;BME280;56301;56.864;60.554;2023-11-21T00:44:33;99258.09;;;26.29;29.82
69187;BME280;56301;56.864;60.554;2023-11-21T00:46:56;99259.16;;;26.28;29.60
69187;BME280;56301;56.864;60.554;2023-11-21T00:49:18;99252.19;;;26.25;29.83
69187;BME280;56301;56.864;60.554;2023-11-21T00:51:41;99246.63;;;26.27;29.80
69187;BME280;56301;56.864;60.554;2023-11-21T00:54:03;99240.34;;;26.26;29.95
69187;BME280;56301;56.864;60.554;2023-11-21T00:56:26;99234.09;;;26.26;28.67
69187;BME280;56301;56.864;60.554;2023-11-21T00:58:49;99248.66;;;26.25;29.56
69187;BME280;56301;56.864;60.554;2023-11-21T01:01:11;99251.38;;;26.25;29.61
69187;BME280;56301;56.864;60.554;2023-11-21T01:03:34;99245.56;;;26.28;30.74
69187;BME280;56301;56.864;60.554;2023-11-21T01:05:56;99228.66;;;26.26;28.86
69187;BME280;56301;56.864;60.554;2023-11-21T01:08:19;99223.59;;;26.23;29.20
69187;BME280;56301;56.864;60.554;2023-11-21T01:10:41;99229.66;;;26.25;30.00
69187;BME280;56301;56.864;60.554;2023-11-21T01:13:04;99217.38;;;26.14;29.31
69187;BME280;56301;56.864;60.554;2023-11-21T01:15:26;99222.91;;;26.21;29.55
69187;BME280;56301;56.864;60.554;2023-11-21T01:17:49;99226.47;;;26.21;29.57
69187;BME280;56301;56.864;60.554;2023-11-21T01:20:11;99213.09;;;26.20;29.09
69187;BME280;56301;56.864;60.554;2023-11-21T01:22:34;99198.50;;;26.21;28.66
69187;BME280;56301;56.864;60.554;2023-11-21T01:24:56;99200.94;;;26.15;30.32
69187;BME280;56301;56.864;60.554;2023-11-21T01:27:19;99101.22;;;26.17;29.42
69187;BME280;56301;56.864;60.554;2023-11-21T01:29:41;99098.34;;;26.19;29.42
69187;BME280;56301;56.864;60.554;2023-11-21T01:32:04;99109.66;;;26.23;29.61
69187;BME280;56301;56.864;60.554;2023-11-21T01:34:26;99110.16;;;26.26;29.41
69187;BME280;56301;56.864;60.554;2023-11-21T01:36:49;99105.72;;;26.25;29.98
69187;BME280;56301;56.864;60.554;2023-11-21T01:39:12;99092.34;;;26.24;28.72
69187;BME280;56301;56.864;60.554;2023-11-21T01:41:34;99097.41;;;26.27;29.55
69187;BME280;56301;56.864;60.554;2023-11-21T01:43:58;99105.91;;;26.24;29.30
69187;BME280;56301;56.864;60.554;2023-11-21T01:46:20;99096.59;;;26.26;28.95
69187;BME280;56301;56.864;60.554;2023-11-21T01:48:43;99092.00;;;26.27;27.89
69187;BME280;56301;56.864;60.554;2023-11-21T01:51:06;99095.75;;;26.26;28.66
69187;BME280;56301;56.864;60.554;2023-11-21T01:53:29;99093.19;;;26.24;27.68
69187;BME280;56301;56.864;60.554;2023-11-21T01:55:51;99088.97;;;26.22;27.97
69187;BME280;56301;56.864;60.554;2023-11-21T01:58:14;99078.53;;;26.19;28.49
69187;BME280;56301;56.864;60.554;2023-11-21T02:00:37;99088.34;;;26.20;27.39
69187;BME280;56301;56.864;60.554;2023-11-21T02:03:00;99081.88;;;26.21;27.37
69187;BME280;56301;56.864;60.554;2023-11-21T02:05:22;99163.59;;;26.17;27.79
69187;BME280;56301;56.864;60.554;2023-11-21T02:07:45;99150.53;;;26.21;28.00
69187;BME280;56301;56.864;60.554;2023-11-21T02:10:08;99134.81;;;26.16;27.58
69187;BME280;56301;56.864;60.554;2023-11-21T02:12:31;99137.25;;;26.11;27.84
69187;BME280;56301;56.864;60.554;2023-11-21T02:14:53;99127.78;;;26.07;28.20
69187;BME280;56301;56.864;60.554;2023-11-21T02:17:15;99127.13;;;26.05;27.92
69187;BME280;56301;56.864;60.554;2023-11-21T02:19:38;99134.22;;;26.06;28.04
69187;BME280;56301;56.864;60.554;2023-11-21T02:22:00;99134.59;;;26.03;27.92
69187;BME280;56301;56.864;60.554;2023-11-21T02:24:23;99126.66;;;26.02;28.15
69187;BME280;56301;56.864;60.554;2023-11-21T02:26:46;99127.47;;;26.02;27.49
69187;BME280;56301;56.864;60.554;2023-11-21T02:29:08;99116.63;;;26.02;28.16
69187;BME280;56301;56.864;60.554;2023-11-21T02:31:31;99108.69;;;26.01;27.43
69187;BME280;56301;56.864;60.554;2023-11-21T02:33:53;99107.00;;;26.00;27.30
69187;BME280;56301;56.864;60.554;2023-11-21T02:36:16;99088.22;;;25.98;28.22
69187;BME280;56301;56.864;60.554;2023-11-21T02:38:38;99089.03;;;25.99;28.61
69187;BME280;56301;56.864;60.554;2023-11-21T02:41:00;99088.22;;;25.98;28.12
69187;BME280;56301;56.864;60.554;2023-11-21T02:43:23;99081.75;;;25.99;27.44
69187;BME280;56301;56.864;60.554;2023-11-21T02:45:45;99087.16;;;25.99;27.50
69187;BME280;56301;56.864;60.554;2023-11-21T02:48:08;99086.53;;;25.97;27.53
69187;BME280;56301;56.864;60.554;2023-11-21T02:50:31;99090.25;;;25.96;27.65
69187;BME280;56301;56.864;60.554;2023-11-21T02:52:54;99081.28;;;25.96;27.82
69187;BME280;56301;56.864;60.554;2023-11-21T02:55:16;99075.00;;;25.95;28.51
69187;BME280;56301;56.864;60.554;2023-11-21T02:57:39;99075.84;;;25.96;28.08
69187;BME280;56301;56.864;60.554;2023-11-21T03:00:02;99084.19;;;25.94;28.04
69187;BME280;56301;56.864;60.554;2023-11-21T03:02:25;99077.91;;;25.93;27.53
69187;BME280;56301;56.864;60.554;2023-11-21T03:04:48;99075.00;;;25.95;27.83
69187;BME280;56301;56.864;60.554;2023-11-21T03:07:10;99072.66;;;25.92;28.28
69187;BME280;56301;56.864;60.554;2023-11-21T03:09:33;99065.38;;;25.92;28.53
69187;BME280;56301;56.864;60.554;2023-11-21T03:11:56;99073.50;;;25.92;27.74
69187;BME280;56301;56.864;60.554;2023-11-21T03:14:18;99067.25;;;25.92;27.80
69187;BME280;56301;56.864;60.554;2023-11-21T03:16:40;99065.56;;;25.91;27.63
69187;BME280;56301;56.864;60.554;2023-11-21T03:19:03;99055.56;;;25.91;28.14
69187;BME280;56301;56.864;60.554;2023-11-21T03:21:25;99045.56;;;25.92;28.50
69187;BME280;56301;56.864;60.554;2023-11-21T03:23:48;99055.56;;;25.91;28.41
69187;BME280;56301;56.864;60.554;2023-11-21T03:26:13;99048.47;;;25.90;28.65
69187;BME280;56301;56.864;60.554;2023-11-21T03:28:36;99039.50;;;25.90;28.43
69187;BME280;56301;56.864;60.554;2023-11-21T03:30:59;99036.78;;;25.90;28.81
69187;BME280;56301;56.864;60.554;2023-11-21T03:33:21;99028.44;;;25.91;28.42
69187;BME280;56301;56.864;60.554;2023-11-21T03:35:44;99023.22;;;25.90;27.75
69187;BME280;56301;56.864;60.554;2023-11-21T03:38:06;99022.38;;;25.89;28.75
69187;BME280;56301;56.864;60.554;2023-11-21T03:40:29;99024.91;;;25.91;28.49
69187;BME280;56301;56.864;60.554;2023-11-21T03:42:51;99011.34;;;25.91;28.75
69187;BME280;56301;56.864;60.554;2023-11-21T03:45:16;99015.09;;;25.90;28.10
69187;BME280;56301;56.864;60.554;2023-11-21T03:47:40;99013.38;;;25.89;28.76
69187;BME280;56301;56.864;60.554;2023-11-21T03:50:03;99016.97;;;25.89;27.73
69187;BME280;56301;56.864;60.554;2023-11-21T03:52:26;98997.13;;;25.89;28.41
69187;BME280;56301;56.864;60.554;2023-11-21T03:54:48;99010.50;;;25.90;28.18
69187;BME280;56301;56.864;60.554;2023-11-21T03:57:11;98989.00;;;25.89;28.27
69187;BME280;56301;56.864;60.554;2023-11-21T03:59:34;98999.84;;;25.89;28.67
69187;BME280;56301;56.864;60.554;2023-11-21T04:01:56;98986.28;;;25.89;28.03
69187;BME280;56301;56.864;60.554;2023-11-21T04:04:19;98979.19;;;25.88;27.95
69187;BME280;56301;56.864;60.554;2023-11-21T04:06:41;98978.34;;;25.87;28.33
69187;BME280;56301;56.864;60.554;2023-11-21T04:09:04;98969.19;;;25.88;27.67
69187;BME280;56301;56.864;60.554;2023-11-21T04:11:26;98967.69;;;25.86;27.90
69187;BME280;56301;56.864;60.554;2023-11-21T04:13:49;98968.53;;;25.86;27.72
69187;BME280;56301;56.864;60.554;2023-11-21T04:16:11;98971.06;;;25.88;28.20
69187;BME280;56301;56.864;60.554;2023-11-21T04:18:36;98962.09;;;25.87;27.56
69187;BME280;56301;56.864;60.554;2023-11-21T04:20:59;98963.28;;;25.85;28.39
69187;BME280;56301;56.864;60.554;2023-11-21T04:23:21;98959.56;;;25.86;28.50
69187;BME280;56301;56.864;60.554;2023-11-21T04:25:44;98958.69;;;25.85;28.16
69187;BME280;56301;56.864;60.554;2023-11-21T04:28:06;98953.28;;;25.85;28.21
69187;BME280;56301;56.864;60.554;2023-11-21T04:30:29;98952.06;;;25.88;28.03
69187;BME280;56301;56.864;60.554;2023-11-21T04:32:52;98945.16;;;25.85;28.25
69187;BME280;56301;56.864;60.554;2023-11-21T04:35:14;98954.16;;;25.86;28.05
69187;BME280;56301;56.864;60.554;2023-11-21T04:37:37;98945.16;;;25.85;27.62
69187;BME280;56301;56.864;60.554;2023-11-21T04:39:59;98932.47;;;25.86;28.14
69187;BME280;56301;56.864;60.554;2023-11-21T04:42:22;98920.94;;;25.84;27.90
69187;BME280;56301;56.864;60.554;2023-11-21T04:44:44;98910.78;;;25.86;27.63
69187;BME280;56301;56.864;60.554;2023-11-21T04:47:07;98916.19;;;25.86;27.90
69187;BME280;56301;56.864;60.554;2023-11-21T04:49:29;98913.66;;;25.84;28.19
69187;BME280;56301;56.864;60.554;2023-11-21T04:51:52;98924.50;;;25.84;28.17
69187;BME280;56301;56.864;60.554;2023-11-21T04:54:14;98904.56;;;25.77;27.47
69187;BME280;56301;56.864;60.554;2023-11-21T04:56:37;98899.28;;;25.84;27.92
69187;BME280;56301;56.864;60.554;2023-11-21T04:58:59;98886.28;;;25.79;28.37
69187;BME280;56301;56.864;60.554;2023-11-21T05:01:22;98904.69;;;25.84;28.23
69187;BME280;56301;56.864;60.554;2023-11-21T05:03:44;98896.56;;;25.84;27.29
69187;BME280;56301;56.864;60.554;2023-11-21T05:06:09;98901.97;;;25.84;27.81
69187;BME280;56301;56.864;60.554;2023-11-21T05:08:31;98903.00;;;25.83;27.95
69187;BME280;56301;56.864;60.554;2023-11-21T05:10:54;98896.75;;;25.82;27.96
69187;BME280;56301;56.864;60.554;2023-11-21T05:13:16;98869.81;;;25.81;27.48
69187;BME280;56301;56.864;60.554;2023-11-21T05:15:40;98877.78;;;25.82;27.72
69187;BME280;56301;56.864;60.554;2023-11-21T05:18:03;98871.53;;;25.82;27.35
69187;BME280;56301;56.864;60.554;2023-11-21T05:20:25;98856.09;;;25.82;27.47
69187;BME280;56301;56.864;60.554;2023-11-21T05:22:48;98860.69;;;25.82;27.95
69187;BME280;56301;56.864;60.554;2023-11-21T05:25:11;98849.84;;;25.82;27.53
69187;BME280;56301;56.864;60.554;2023-11-21T05:27:34;98843.56;;;25.81;28.01
69187;BME280;56301;56.864;60.554;2023-11-21T05:29:56;98837.28;;;25.81;27.34
69187;BME280;56301;56.864;60.554;2023-11-21T05:32:19;98831.72;;;25.82;27.73
69187;BME280;56301;56.864;60.554;2023-11-21T05:34:41;98833.59;;;25.82;27.82
69187;BME280;56301;56.864;60.554;2023-11-21T05:37:04;98836.28;;;25.82;27.81
69187;BME280;56301;56.864;60.554;2023-11-21T05:39:27;98830.88;;;25.82;27.97
69187;BME280;56301;56.864;60.554;2023-11-21T05:41:49;98803.94;;;25.80;28.26
69187;BME280;56301;56.864;60.554;2023-11-21T05:44:11;98797.69;;;25.80;27.83
69187;BME280;56301;56.864;60.554;2023-11-21T05:46:34;98792.25;;;25.80;27.28
69187;BME280;56301;56.864;60.554;2023-11-21T05:48:56;98785.78;;;25.81;27.30
69187;BME280;56301;56.864;60.554;2023-11-21T05:51:19;98788.50;;;25.81;27.93
69187;BME280;56301;56.864;60.554;2023-11-21T05:53:41;98786.00;;;25.79;27.16
69187;BME280;56301;56.864;60.554;2023-11-21T05:56:04;98785.16;;;25.79;28.12
69187;BME280;56301;56.864;60.554;2023-11-21T05:58:26;98783.28;;;25.79;27.92
69187;BME280;56301;56.864;60.554;2023-11-21T06:00:49;98788.84;;;25.78;27.39
69187;BME280;56301;56.864;60.554;2023-11-21T06:03:11;98785.16;;;25.79;27.72
69187;BME280;56301;56.864;60.554;2023-11-21T06:05:34;98769.75;;;25.79;28.05
69187;BME280;56301;56.864;60.554;2023-11-21T06:07:56;98764.31;;;25.79;28.18
69187;BME280;56301;56.864;60.554;2023-11-21T06:10:22;98770.75;;;25.78;27.00
69187;BME280;56301;56.864;60.554;2023-11-21T06:12:44;98768.91;;;25.79;27.98
69187;BME280;56301;56.864;60.554;2023-11-21T06:15:07;98763.47;;;25.79;27.58
69187;BME280;56301;56.864;60.554;2023-11-21T06:17:29;98775.16;;;25.79;27.33
69187;BME280;56301;56.864;60.554;2023-11-21T06:19:52;98753.47;;;25.79;27.33
69187;BME280;56301;56.864;60.554;2023-11-21T06:22:14;98748.91;;;25.80;27.67
69187;BME280;56301;56.864;60.554;2023-11-21T06:24:37;98764.31;;;25.79;27.87
69187;BME280;56301;56.864;60.554;2023-11-21T06:26:59;98768.03;;;25.78;27.52
69187;BME280;56301;56.864;60.554;2023-11-21T06:29:22;98764.31;;;25.79;27.18
69187;BME280;56301;56.864;60.554;2023-11-21T06:31:44;98771.63;;;25.79;28.15
69187;BME280;56301;56.864;60.554;2023-11-21T06:34:07;98754.66;;;25.77;27.80
69187;BME280;56301;56.864;60.554;2023-11-21T06:36:29;98748.19;;;25.78;28.21
69187;BME280;56301;56.864;60.554;2023-11-21T06:38:52;98733.81;;;25.77;27.84
69187;BME280;56301;56.864;60.554;2023-11-21T06:41:14;98708.59;;;25.77;27.40
69187;BME280;56301;56.864;60.554;2023-11-21T06:43:37;98710.25;;;25.78;28.13
69187;BME280;56301;56.864;60.554;2023-11-21T06:45:59;98704.00;;;25.77;27.28
69187;BME280;56301;56.864;60.554;2023-11-21T06:48:22;98704.00;;;25.77;28.38
69187;BME280;56301;56.864;60.554;2023-11-21T06:50:44;98706.72;;;25.77;27.91
69187;BME280;56301;56.864;60.554;2023-11-21T06:53:07;98702.13;;;25.78;27.15
69187;BME280;56301;56.864;60.554;2023-11-21T06:55:29;98701.28;;;25.77;27.34
69187;BME280;56301;56.864;60.554;2023-11-21T06:57:52;98692.31;;;25.77;28.31
69187;BME280;56301;56.864;60.554;2023-11-21T07:00:17;98684.19;;;25.77;28.21
69187;BME280;56301;56.864;60.554;2023-11-21T07:02:40;98691.28;;;25.78;28.26
69187;BME280;56301;56.864;60.554;2023-11-21T07:05:02;98669.81;;;25.76;27.97
69187;BME280;56301;56.864;60.554;2023-11-21T07:07:26;98673.34;;;25.77;27.62
69187;BME280;56301;56.864;60.554;2023-11-21T07:09:49;98668.75;;;25.77;27.94
69187;BME280;56301;56.864;60.554;2023-11-21T07:12:12;98658.75;;;25.78;27.64
69187;BME280;56301;56.864;60.554;2023-11-21T07:14:34;98651.66;;;25.77;27.68
69187;BME280;56301;56.864;60.554;2023-11-21T07:16:57;98640.00;;;25.76;28.38
69187;BME280;56301;56.864;60.554;2023-11-21T07:19:20;98628.13;;;25.77;28.33
69187;BME280;56301;56.864;60.554;2023-11-21T07:21:42;98615.41;;;25.78;27.64
69187;BME280;56301;56.864;60.554;2023-11-21T07:24:05;98615.41;;;25.78;28.47
69187;BME280;56301;56.864;60.554;2023-11-21T07:26:28;98603.72;;;25.77;27.65
69187;BME280;56301;56.864;60.554;2023-11-21T07:28:51;98593.72;;;25.78;27.48
69187;BME280;56301;56.864;60.554;2023-11-21T07:31:13;98580.38;;;25.76;27.67
69187;BME280;56301;56.864;60.554;2023-11-21T07:33:37;98575.78;;;25.77;27.63
69187;BME280;56301;56.864;60.554;2023-11-21T07:35:59;98557.84;;;25.76;27.87
69187;BME280;56301;56.864;60.554;2023-11-21T07:38:21;98566.00;;;25.76;28.25
69187;BME280;56301;56.864;60.554;2023-11-21T07:40:44;98564.31;;;25.75;28.38
69187;BME280;56301;56.864;60.554;2023-11-21T07:43:06;98545.34;;;25.75;27.68
69187;BME280;56301;56.864;60.554;2023-11-21T07:45:29;98555.16;;;25.76;28.11
69187;BME280;56301;56.864;60.554;2023-11-21T07:47:51;98549.72;;;25.76;28.45
69187;BME280;56301;56.864;60.554;2023-11-21T07:50:14;98544.31;;;25.76;28.17
69187;BME280;56301;56.864;60.554;2023-11-21T07:52:36;98543.25;;;25.77;28.20
69187;BME280;56301;56.864;60.554;2023-11-21T07:54:58;98517.22;;;25.76;27.74
69187;BME280;56301;56.864;60.554;2023-11-21T07:57:21;98524.50;;;25.75;28.47
69187;BME280;56301;56.864;60.554;2023-11-21T07:59:43;98527.00;;;25.77;27.46
69187;BME280;56301;56.864;60.554;2023-11-21T08:02:06;98498.25;;;25.76;28.14
69187;BME280;56301;56.864;60.554;2023-11-21T08:04:29;98506.38;;;25.76;28.22
69187;BME280;56301;56.864;60.554;2023-11-21T08:06:51;98509.06;;;25.76;28.12
69187;BME280;56301;56.864;60.554;2023-11-21T08:09:14;98511.78;;;25.76;27.65
69187;BME280;56301;56.864;60.554;2023-11-21T08:11:36;98496.38;;;25.76;27.79
69187;BME280;56301;56.864;60.554;2023-11-21T08:13:59;98483.66;;;25.77;27.65
69187;BME280;56301;56.864;60.554;2023-11-21T08:16:21;98480.09;;;25.76;27.34
69187;BME280;56301;56.864;60.554;2023-11-21T08:18:44;98481.97;;;25.76;27.53
69187;BME280;56301;56.864;60.554;2023-11-21T08:21:06;98476.56;;;25.76;27.54
69187;BME280;56301;56.864;60.554;2023-11-21T08:23:28;98476.56;;;25.76;27.48
69187;BME280;56301;56.864;60.554;2023-11-21T08:25:54;98454.88;;;25.76;27.51
69187;BME280;56301;56.864;60.554;2023-11-21T08:28:16;98456.75;;;25.75;28.11
69187;BME280;56301;56.864;60.554;2023-11-21T08:30:39;98444.66;;;25.78;27.79
69187;BME280;56301;56.864;60.554;2023-11-21T08:33:01;98448.63;;;25.75;28.17
69187;BME280;56301;56.864;60.554;2023-11-21T08:35:24;98439.44;;;25.76;27.98
69187;BME280;56301;56.864;60.554;2023-11-21T08:37:46;98438.63;;;25.76;27.93
69187;BME280;56301;56.864;60.554;2023-11-21T08:40:09;98441.31;;;25.76;27.40
69187;BME280;56301;56.864;60.554;2023-11-21T08:42:32;98447.59;;;25.76;27.58
69187;BME280;56301;56.864;60.554;2023-11-21T08:44:54;98413.41;;;25.75;27.70
69187;BME280;56301;56.864;60.554;2023-11-21T08:47:16;98409.84;;;25.75;28.31
69187;BME280;56301;56.864;60.554;2023-11-21T08:49:39;98414.22;;;25.76;27.65
69187;BME280;56301;56.864;60.554;2023-11-21T08:52:01;98403.38;;;25.76;27.67
69187;BME280;56301;56.864;60.554;2023-11-21T08:54:24;98398.81;;;25.76;27.63
69187;BME280;56301;56.864;60.554;2023-11-21T08:56:46;98404.22;;;25.76;27.53
69187;BME280;56301;56.864;60.554;2023-11-21T08:59:09;98417.56;;;25.78;27.73
69187;BME280;56301;56.864;60.554;2023-11-21T09:01:31;98406.09;;;25.76;28.09
69187;BME280;56301;56.864;60.554;2023-11-21T09:03:54;98402.34;;;25.77;28.20
69187;BME280;56301;56.864;60.554;2023-11-21T09:06:16;98399.63;;;25.77;28.17
69187;BME280;56301;56.864;60.554;2023-11-21T09:08:39;98402.34;;;25.77;27.38
69187;BME280;56301;56.864;60.554;2023-11-21T09:11:01;98386.28;;;25.75;27.51
69187;BME280;56301;56.864;60.554;2023-11-21T09:13:23;98384.41;;;25.76;27.40
69187;BME280;56301;56.864;60.554;2023-11-21T09:15:46;98377.34;;;25.75;27.58
69187;BME280;56301;56.864;60.554;2023-11-21T09:18:08;98377.34;;;25.75;27.59
69187;BME280;56301;56.864;60.554;2023-11-21T09:20:31;98373.56;;;25.76;27.48
69187;BME280;56301;56.864;60.554;2023-11-21T09:22:53;98370.88;;;25.76;27.41
69187;BME280;56301;56.864;60.554;2023-11-21T09:25:16;98367.31;;;25.75;27.54
69187;BME280;56301;56.864;60.554;2023-11-21T09:27:38;98370.22;;;25.74;27.48
69187;BME280;56301;56.864;60.554;2023-11-21T09:30:01;98373.56;;;25.76;27.75
69187;BME280;56301;56.864;60.554;2023-11-21T09:32:23;98375.47;;;25.75;27.96
69187;BME280;56301;56.864;60.554;2023-11-21T09:34:46;98362.09;;;25.74;28.04
69187;BME280;56301;56.864;60.554;2023-11-21T09:37:09;98345.66;;;25.75;27.46
69187;BME280;56301;56.864;60.554;2023-11-21T09:39:31;98354.78;;;25.74;27.39
69187;BME280;56301;56.864;60.554;2023-11-21T09:41:58;98357.31;;;25.76;28.16
69187;BME280;56301;56.864;60.554;2023-11-21T09:44:23;98344.81;;;25.75;27.87
69187;BME280;56301;56.864;60.554;2023-11-21T09:46:48;98335.81;;;25.74;27.33
69187;BME280;56301;56.864;60.554;2023-11-21T09:49:11;98328.56;;;25.75;27.45
69187;BME280;56301;56.864;60.554;2023-11-21T09:51:33;98317.72;;;25.75;27.65
69187;BME280;56301;56.864;60.554;2023-11-21T09:53:56;98297.06;;;25.74;27.65
69187;BME280;56301;56.864;60.554;2023-11-21T09:56:19;98286.22;;;25.74;27.61
69187;BME280;56301;56.864;60.554;2023-11-21T09:58:41;98288.94;;;25.74;27.73
69187;BME280;56301;56.864;60.554;2023-11-21T10:01:04;98275.38;;;25.74;27.29
69187;BME280;56301;56.864;60.554;2023-11-21T10:03:27;98261.22;;;25.72;28.24
69187;BME280;56301;56.864;60.554;2023-11-21T10:05:50;98262.88;;;25.73;28.17
69187;BME280;56301;56.864;60.554;2023-11-21T10:08:13;98276.22;;;25.74;28.32
69187;BME280;56301;56.864;60.554;2023-11-21T10:10:36;98274.53;;;25.73;27.46
69187;BME280;56301;56.864;60.554;2023-11-21T10:13:03;98265.59;;;25.73;27.61
69187;BME280;56301;56.864;60.554;2023-11-21T10:15:26;98256.41;;;25.74;27.55
69187;BME280;56301;56.864;60.554;2023-11-21T10:17:48;98252.69;;;25.75;28.23
69187;BME280;56301;56.864;60.554;2023-11-21T10:20:11;98247.25;;;25.75;28.22
69187;BME280;56301;56.864;60.554;2023-11-21T10:22:33;98244.75;;;25.73;28.38
69187;BME280;56301;56.864;60.554;2023-11-21T10:24:56;98251.00;;;25.74;27.75
69187;BME280;56301;56.864;60.554;2023-11-21T10:27:18;98247.25;;;25.75;28.22
69187;BME280;56301;56.864;60.554;2023-11-21T10:29:41;98227.66;;;25.73;28.05
69187;BME280;56301;56.864;60.554;2023-11-21T10:32:04;98239.31;;;25.73;27.82
69187;BME280;56301;56.864;60.554;2023-11-21T10:34:26;98221.19;;;25.74;27.69
69187;BME280;56301;56.864;60.554;2023-11-21T10:36:48;98213.44;;;25.70;27.73
69187;BME280;56301;56.864;60.554;2023-11-21T10:39:14;98217.22;;;25.69;27.50
69187;BME280;56301;56.864;60.554;2023-11-21T10:41:38;98207.03;;;25.72;27.70
69187;BME280;56301;56.864;60.554;2023-11-21T10:44:01;98199.91;;;25.70;28.15
69187;BME280;56301;56.864;60.554;2023-11-21T10:46:24;98208.91;;;25.71;27.60
69187;BME280;56301;56.864;60.554;2023-11-21T10:48:50;98217.84;;;25.72;27.81
69187;BME280;56301;56.864;60.554;2023-11-21T10:51:14;98206.81;;;25.73;27.94
69187;BME280;56301;56.864;60.554;2023-11-21T10:53:39;98211.38;;;25.73;27.68
69187;BME280;56301;56.864;60.554;2023-11-21T10:56:04;98193.25;;;25.73;28.26
69187;BME280;56301;56.864;60.554;2023-11-21T10:58:27;98183.47;;;25.72;27.85
69187;BME280;56301;56.864;60.554;2023-11-21T11:00:50;98189.94;;;25.71;27.64
69187;BME280;56301;56.864;60.554;2023-11-21T11:03:12;98182.63;;;25.72;28.24
69187;BME280;56301;56.864;60.554;2023-11-21T11:05:35;98176.56;;;25.69;28.17
69187;BME280;56301;56.864;60.554;2023-11-21T11:10:20;98176.38;;;25.71;28.00
69187;BME280;56301;56.864;60.554;2023-11-21T11:12:43;98184.50;;;25.71;27.51
69187;BME280;56301;56.864;60.554;2023-11-21T11:15:08;98171.97;;;25.70;27.91
69187;BME280;56301;56.864;60.554;2023-11-21T11:17:31;98157.59;;;25.69;28.22
69187;BME280;56301;56.864;60.554;2023-11-21T11:19:53;98159.25;;;25.70;28.15
69187;BME280;56301;56.864;60.554;2023-11-21T11:22:40;98172.81;;;25.70;28.04
69187;BME280;56301;56.864;60.554;2023-11-21T11:25:05;98175.53;;;25.70;27.54
69187;BME280;56301;56.864;60.554;2023-11-21T11:27:40;98188.25;;;25.70;27.85
69187;BME280;56301;56.864;60.554;2023-11-21T11:35:04;98170.09;;;25.70;27.40
69187;BME280;56301;56.864;60.554;2023-11-21T11:37:29;98180.94;;;25.70;28.15
69187;BME280;56301;56.864;60.554;2023-11-21T11:39:51;98179.28;;;25.69;27.60
69187;BME280;56301;56.864;60.554;2023-11-21T11:42:14;98191.78;;;25.70;27.86
69187;BME280;56301;56.864;60.554;2023-11-21T11:47:12;98190.13;;;25.69;27.46
69187;BME280;56301;56.864;60.554;2023-11-21T11:49:35;98191.78;;;25.70;28.00
69187;BME280;56301;56.864;60.554;2023-11-21T11:54:40;98177.63;;;25.68;27.57
69187;BME280;56301;56.864;60.554;2023-11-21T11:57:03;98174.06;;;25.68;27.62
69187;BME280;56301;56.864;60.554;2023-11-21T11:59:26;98178.66;;;25.67;27.96
69187;BME280;56301;56.864;60.554;2023-11-21T12:01:48;98181.97;;;25.69;27.47
69187;BME280;56301;56.864;60.554;2023-11-21T12:06:34;98171.38;;;25.68;27.20
69187;BME280;56301;56.864;60.554;2023-11-21T12:09:00;98166.78;;;25.68;28.39
69187;BME280;56301;56.864;60.554;2023-11-21T12:11:29;98164.06;;;25.68;27.88
69187;BME280;56301;56.864;60.554;2023-11-21T12:13:52;98165.94;;;25.68;27.57
69187;BME280;56301;56.864;60.554;2023-11-21T12:16:15;98161.53;;;25.67;27.98
69187;BME280;56301;56.864;60.554;2023-11-21T12:18:37;98138.03;;;25.67;27.47
69187;BME280;56301;56.864;60.554;2023-11-21T12:21:00;98133.44;;;25.68;28.43
69187;BME280;56301;56.864;60.554;2023-11-21T12:23:22;98128.84;;;25.68;28.17
69187;BME280;56301;56.864;60.554;2023-11-21T12:25:45;98130.91;;;25.66;27.12
69187;BME280;56301;56.864;60.554;2023-11-21T12:28:07;98125.50;;;25.66;27.36
69187;BME280;56301;56.864;60.554;2023-11-21T12:30:30;98105.50;;;25.67;27.59
69187;BME280;56301;56.864;60.554;2023-11-21T12:32:54;98120.06;;;25.66;27.41
69187;BME280;56301;56.864;60.554;2023-11-21T12:35:17;98125.31;;;25.68;27.42
69187;BME280;56301;56.864;60.554;2023-11-21T12:37:40;98130.72;;;25.68;27.30
69187;BME280;56301;56.864;60.554;2023-11-21T12:40:04;98129.91;;;25.67;28.00
69187;BME280;56301;56.864;60.554;2023-11-21T12:42:27;98116.34;;;25.67;27.56